sensor_id;sensor_type;location;lat;lon;timestamp;P1;durP1;ratioP1;P2;durP2;ratioP2
69325;SDS011;56471;53.508;49.252;2023-04-07T00:01:01;1.75;;;1.30;;
69325;SDS011;56471;53.508;49.252;2023-04-07T00:03:27;1.30;;;1.10;;
69325;SDS011;56471;53.508;49.252;2023-04-07T00:05:52;1.88;;;1.15;;
69325;SDS011;56471;53.508;49.252;2023-04-07T00:08:18;1.52;;;0.95;;
69325;SDS011;56471;53.508;49.252;2023-04-07T00:10:44;1.20;;;1.10;;
69325;SDS011;56471;53.508;49.252;2023-04-07T00:13:10;1.17;;;0.93;;
69325;SDS011;56471;53.508;49.252;2023-04-07T00:15:35;1.67;;;1.00;;
69325;SDS011;56471;53.508;49.252;2023-04-07T00:18:01;1.63;;;1.13;;
69325;SDS011;56471;53.508;49.252;2023-04-07T00:20:27;1.25;;;1.00;;
69325;SDS011;56471;53.508;49.252;2023-04-07T00:22:52;1.77;;;1.13;;
69325;SDS011;56471;53.508;49.252;2023-04-07T00:25:18;1.90;;;1.08;;
69325;SDS011;56471;53.508;49.252;2023-04-07T00:27:43;1.25;;;1.10;;
69325;SDS011;56471;53.508;49.252;2023-04-07T00:30:09;1.77;;;0.90;;
69325;SDS011;56471;53.508;49.252;2023-04-07T00:32:35;1.48;;;1.00;;
69325;SDS011;56471;53.508;49.252;2023-04-07T00:35:01;1.67;;;1.23;;
69325;SDS011;56471;53.508;49.252;2023-04-07T00:37:26;1.52;;;1.10;;
69325;SDS011;56471;53.508;49.252;2023-04-07T00:39:52;1.70;;;1.00;;
69325;SDS011;56471;53.508;49.252;2023-04-07T00:42:18;1.40;;;1.10;;
69325;SDS011;56471;53.508;49.252;2023-04-07T00:44:44;1.15;;;1.05;;
69325;SDS011;56471;53.508;49.252;2023-04-07T00:47:09;1.40;;;1.00;;
69325;SDS011;56471;53.508;49.252;2023-04-07T00:49:35;2.65;;;1.23;;
69325;SDS011;56471;53.508;49.252;2023-04-07T00:52:01;1.38;;;1.27;;
69325;SDS011;56471;53.508;49.252;2023-04-07T00:54:29;2.50;;;1.13;;
69325;SDS011;56471;53.508;49.252;2023-04-07T00:56:55;1.10;;;1.00;;
69325;SDS011;56471;53.508;49.252;2023-04-07T00:59:21;1.58;;;1.15;;
69325;SDS011;56471;53.508;49.252;2023-04-07T01:04:40;1.98;;;1.10;;
69325;SDS011;56471;53.508;49.252;2023-04-07T01:07:14;1.10;;;1.00;;
69325;SDS011;56471;53.508;49.252;2023-04-07T01:09:46;1.20;;;1.08;;
69325;SDS011;56471;53.508;49.252;2023-04-07T01:15:08;2.20;;;1.23;;
69325;SDS011;56471;53.508;49.252;2023-04-07T01:17:36;1.13;;;1.02;;
69325;SDS011;56471;53.508;49.252;2023-04-07T01:20:06;1.42;;;1.10;;
69325;SDS011;56471;53.508;49.252;2023-04-07T01:22:39;3.22;;;1.17;;
69325;SDS011;56471;53.508;49.252;2023-04-07T01:30:38;1.45;;;1.05;;
69325;SDS011;56471;53.508;49.252;2023-04-07T01:33:09;1.98;;;1.10;;
69325;SDS011;56471;53.508;49.252;2023-04-07T01:35:36;1.60;;;1.20;;
69325;SDS011;56471;53.508;49.252;2023-04-07T01:38:03;2.05;;;0.98;;
69325;SDS011;56471;53.508;49.252;2023-04-07T01:40:30;1.20;;;1.02;;
69325;SDS011;56471;53.508;49.252;2023-04-07T01:42:58;1.42;;;1.02;;
69325;SDS011;56471;53.508;49.252;2023-04-07T01:45:25;1.45;;;1.10;;
69325;SDS011;56471;53.508;49.252;2023-04-07T01:47:52;2.10;;;1.17;;
69325;SDS011;56471;53.508;49.252;2023-04-07T01:50:19;1.27;;;1.00;;
69325;SDS011;56471;53.508;49.252;2023-04-07T01:52:46;1.92;;;1.13;;
69325;SDS011;56471;53.508;49.252;2023-04-07T01:55:12;2.20;;;1.20;;
69325;SDS011;56471;53.508;49.252;2023-04-07T01:57:38;1.17;;;0.95;;
69325;SDS011;56471;53.508;49.252;2023-04-07T02:00:04;2.38;;;1.10;;
69325;SDS011;56471;53.508;49.252;2023-04-07T02:02:30;1.50;;;1.00;;
69325;SDS011;56471;53.508;49.252;2023-04-07T02:05:01;1.00;;;0.90;;
69325;SDS011;56471;53.508;49.252;2023-04-07T02:07:40;1.60;;;0.88;;
69325;SDS011;56471;53.508;49.252;2023-04-07T02:10:14;1.38;;;0.88;;
69325;SDS011;56471;53.508;49.252;2023-04-07T02:12:41;0.80;;;0.70;;
69325;SDS011;56471;53.508;49.252;2023-04-07T02:15:10;1.27;;;0.77;;
69325;SDS011;56471;53.508;49.252;2023-04-07T02:17:38;1.05;;;0.90;;
69325;SDS011;56471;53.508;49.252;2023-04-07T02:20:06;1.52;;;0.90;;
69325;SDS011;56471;53.508;49.252;2023-04-07T02:22:33;1.48;;;0.80;;
69325;SDS011;56471;53.508;49.252;2023-04-07T02:24:59;1.88;;;0.70;;
69325;SDS011;56471;53.508;49.252;2023-04-07T02:27:25;1.58;;;0.85;;
69325;SDS011;56471;53.508;49.252;2023-04-07T02:29:51;2.17;;;1.10;;
69325;SDS011;56471;53.508;49.252;2023-04-07T02:32:16;1.42;;;0.88;;
69325;SDS011;56471;53.508;49.252;2023-04-07T02:34:42;1.10;;;0.90;;
69325;SDS011;56471;53.508;49.252;2023-04-07T02:37:08;0.80;;;0.70;;
69325;SDS011;56471;53.508;49.252;2023-04-07T02:39:33;2.38;;;0.90;;
69325;SDS011;56471;53.508;49.252;2023-04-07T02:41:59;1.70;;;1.05;;
69325;SDS011;56471;53.508;49.252;2023-04-07T02:44:25;0.98;;;0.80;;
69325;SDS011;56471;53.508;49.252;2023-04-07T02:46:50;1.52;;;0.80;;
69325;SDS011;56471;53.508;49.252;2023-04-07T02:49:16;1.00;;;0.90;;
69325;SDS011;56471;53.508;49.252;2023-04-07T02:51:41;0.73;;;0.73;;
69325;SDS011;56471;53.508;49.252;2023-04-07T02:54:07;1.45;;;0.80;;
69325;SDS011;56471;53.508;49.252;2023-04-07T02:56:33;1.55;;;0.80;;
69325;SDS011;56471;53.508;49.252;2023-04-07T02:58:58;1.80;;;0.95;;
69325;SDS011;56471;53.508;49.252;2023-04-07T03:01:24;2.17;;;0.70;;
69325;SDS011;56471;53.508;49.252;2023-04-07T03:03:49;2.13;;;0.80;;
69325;SDS011;56471;53.508;49.252;2023-04-07T03:06:15;0.98;;;0.70;;
69325;SDS011;56471;53.508;49.252;2023-04-07T03:08:41;3.67;;;0.90;;
69325;SDS011;56471;53.508;49.252;2023-04-07T03:11:06;1.90;;;1.00;;
69325;SDS011;56471;53.508;49.252;2023-04-07T03:13:32;1.90;;;0.80;;
69325;SDS011;56471;53.508;49.252;2023-04-07T03:15:58;1.23;;;0.70;;
69325;SDS011;56471;53.508;49.252;2023-04-07T03:18:23;4.60;;;0.90;;
69325;SDS011;56471;53.508;49.252;2023-04-07T03:20:49;2.28;;;0.90;;
69325;SDS011;56471;53.508;49.252;2023-04-07T03:23:17;2.17;;;0.80;;
69325;SDS011;56471;53.508;49.252;2023-04-07T03:25:43;3.42;;;1.10;;
69325;SDS011;56471;53.508;49.252;2023-04-07T03:28:08;1.30;;;0.80;;
69325;SDS011;56471;53.508;49.252;2023-04-07T03:30:34;3.80;;;1.20;;
69325;SDS011;56471;53.508;49.252;2023-04-07T03:33:00;1.98;;;0.77;;
69325;SDS011;56471;53.508;49.252;2023-04-07T03:35:26;1.83;;;0.90;;
69325;SDS011;56471;53.508;49.252;2023-04-07T03:37:52;1.17;;;0.90;;
69325;SDS011;56471;53.508;49.252;2023-04-07T03:40:17;5.60;;;1.20;;
69325;SDS011;56471;53.508;49.252;2023-04-07T03:42:44;2.03;;;0.88;;
69325;SDS011;56471;53.508;49.252;2023-04-07T03:45:10;2.75;;;0.82;;
69325;SDS011;56471;53.508;49.252;2023-04-07T03:47:36;2.80;;;0.90;;
69325;SDS011;56471;53.508;49.252;2023-04-07T03:50:01;4.53;;;1.00;;
69325;SDS011;56471;53.508;49.252;2023-04-07T03:52:27;2.90;;;0.82;;
69325;SDS011;56471;53.508;49.252;2023-04-07T03:54:53;1.73;;;0.75;;
69325;SDS011;56471;53.508;49.252;2023-04-07T03:57:19;0.80;;;0.70;;
69325;SDS011;56471;53.508;49.252;2023-04-07T03:59:44;2.03;;;0.90;;
69325;SDS011;56471;53.508;49.252;2023-04-07T04:02:11;2.47;;;0.95;;
69325;SDS011;56471;53.508;49.252;2023-04-07T04:04:40;1.95;;;1.05;;
69325;SDS011;56471;53.508;49.252;2023-04-07T04:07:05;1.98;;;1.00;;
69325;SDS011;56471;53.508;49.252;2023-04-07T04:09:34;2.05;;;0.90;;
69325;SDS011;56471;53.508;49.252;2023-04-07T04:12:00;2.47;;;1.00;;
69325;SDS011;56471;53.508;49.252;2023-04-07T04:14:33;3.10;;;0.90;;
69325;SDS011;56471;53.508;49.252;2023-04-07T04:16:59;2.78;;;1.02;;
69325;SDS011;56471;53.508;49.252;2023-04-07T04:19:25;1.23;;;0.90;;
69325;SDS011;56471;53.508;49.252;2023-04-07T04:21:50;2.75;;;1.10;;
69325;SDS011;56471;53.508;49.252;2023-04-07T04:24:16;1.08;;;0.80;;
69325;SDS011;56471;53.508;49.252;2023-04-07T04:26:41;3.55;;;1.08;;
69325;SDS011;56471;53.508;49.252;2023-04-07T04:29:07;3.15;;;0.80;;
69325;SDS011;56471;53.508;49.252;2023-04-07T04:31:33;1.30;;;1.00;;
69325;SDS011;56471;53.508;49.252;2023-04-07T04:33:58;2.20;;;1.00;;
69325;SDS011;56471;53.508;49.252;2023-04-07T04:36:24;2.33;;;1.10;;
69325;SDS011;56471;53.508;49.252;2023-04-07T04:38:50;1.75;;;0.77;;
69325;SDS011;56471;53.508;49.252;2023-04-07T04:41:16;1.35;;;0.80;;
69325;SDS011;56471;53.508;49.252;2023-04-07T04:43:41;4.47;;;1.13;;
69325;SDS011;56471;53.508;49.252;2023-04-07T04:46:07;3.72;;;1.10;;
69325;SDS011;56471;53.508;49.252;2023-04-07T04:48:32;1.15;;;0.90;;
69325;SDS011;56471;53.508;49.252;2023-04-07T04:50:58;1.50;;;1.00;;
69325;SDS011;56471;53.508;49.252;2023-04-07T04:53:24;2.03;;;0.90;;
69325;SDS011;56471;53.508;49.252;2023-04-07T04:55:49;2.90;;;0.90;;
69325;SDS011;56471;53.508;49.252;2023-04-07T04:58:17;3.20;;;1.00;;
69325;SDS011;56471;53.508;49.252;2023-04-07T05:00:43;3.85;;;0.98;;
69325;SDS011;56471;53.508;49.252;2023-04-07T05:03:09;1.50;;;0.90;;
69325;SDS011;56471;53.508;49.252;2023-04-07T05:05:34;1.40;;;0.80;;
69325;SDS011;56471;53.508;49.252;2023-04-07T05:08:00;1.77;;;1.15;;
69325;SDS011;56471;53.508;49.252;2023-04-07T05:10:26;2.10;;;1.00;;
69325;SDS011;56471;53.508;49.252;2023-04-07T05:12:51;1.98;;;0.90;;
69325;SDS011;56471;53.508;49.252;2023-04-07T05:15:17;4.80;;;1.33;;
69325;SDS011;56471;53.508;49.252;2023-04-07T05:17:42;1.92;;;1.10;;
69325;SDS011;56471;53.508;49.252;2023-04-07T05:20:08;1.35;;;1.00;;
69325;SDS011;56471;53.508;49.252;2023-04-07T05:22:35;2.67;;;1.10;;
69325;SDS011;56471;53.508;49.252;2023-04-07T05:25:01;3.30;;;1.00;;
69325;SDS011;56471;53.508;49.252;2023-04-07T05:27:27;1.80;;;1.15;;
69325;SDS011;56471;53.508;49.252;2023-04-07T05:29:52;3.65;;;1.10;;
69325;SDS011;56471;53.508;49.252;2023-04-07T05:32:18;3.33;;;1.00;;
69325;SDS011;56471;53.508;49.252;2023-04-07T05:34:44;1.85;;;0.88;;
69325;SDS011;56471;53.508;49.252;2023-04-07T05:37:09;2.88;;;1.00;;
69325;SDS011;56471;53.508;49.252;2023-04-07T05:39:35;1.27;;;0.93;;
69325;SDS011;56471;53.508;49.252;2023-04-07T05:42:01;2.10;;;1.02;;
69325;SDS011;56471;53.508;49.252;2023-04-07T05:44:27;1.40;;;1.00;;
69325;SDS011;56471;53.508;49.252;2023-04-07T05:46:52;1.98;;;1.10;;
69325;SDS011;56471;53.508;49.252;2023-04-07T05:49:18;1.55;;;1.10;;
69325;SDS011;56471;53.508;49.252;2023-04-07T05:51:44;2.65;;;1.00;;
69325;SDS011;56471;53.508;49.252;2023-04-07T05:54:10;1.67;;;0.90;;
69325;SDS011;56471;53.508;49.252;2023-04-07T05:56:35;2.83;;;1.20;;
69325;SDS011;56471;53.508;49.252;2023-04-07T05:59:01;2.15;;;1.10;;
69325;SDS011;56471;53.508;49.252;2023-04-07T06:01:27;1.83;;;1.02;;
69325;SDS011;56471;53.508;49.252;2023-04-07T06:03:53;1.38;;;1.00;;
69325;SDS011;56471;53.508;49.252;2023-04-07T06:06:19;2.55;;;1.10;;
69325;SDS011;56471;53.508;49.252;2023-04-07T06:08:45;4.90;;;1.30;;
69325;SDS011;56471;53.508;49.252;2023-04-07T06:11:11;1.15;;;1.00;;
69325;SDS011;56471;53.508;49.252;2023-04-07T06:13:37;1.63;;;1.13;;
69325;SDS011;56471;53.508;49.252;2023-04-07T06:16:02;1.90;;;1.00;;
69325;SDS011;56471;53.508;49.252;2023-04-07T06:18:29;3.45;;;1.20;;
69325;SDS011;56471;53.508;49.252;2023-04-07T06:20:54;2.20;;;1.00;;
69325;SDS011;56471;53.508;49.252;2023-04-07T06:23:21;1.70;;;1.10;;
69325;SDS011;56471;53.508;49.252;2023-04-07T06:25:46;4.30;;;1.38;;
69325;SDS011;56471;53.508;49.252;2023-04-07T06:28:16;3.42;;;1.30;;
69325;SDS011;56471;53.508;49.252;2023-04-07T06:30:42;4.47;;;1.10;;
69325;SDS011;56471;53.508;49.252;2023-04-07T06:33:08;2.92;;;1.27;;
69325;SDS011;56471;53.508;49.252;2023-04-07T06:35:35;1.85;;;1.00;;
69325;SDS011;56471;53.508;49.252;2023-04-07T06:38:03;2.30;;;1.00;;
69325;SDS011;56471;53.508;49.252;2023-04-07T06:40:29;3.50;;;1.30;;
69325;SDS011;56471;53.508;49.252;2023-04-07T06:42:55;307.90;;;225.88;;
69325;SDS011;56471;53.508;49.252;2023-04-07T06:45:20;620.28;;;498.23;;
69325;SDS011;56471;53.508;49.252;2023-04-07T06:47:46;588.85;;;479.25;;
69325;SDS011;56471;53.508;49.252;2023-04-07T06:50:12;483.45;;;372.42;;
69325;SDS011;56471;53.508;49.252;2023-04-07T06:52:37;422.35;;;319.23;;
69325;SDS011;56471;53.508;49.252;2023-04-07T06:55:03;346.63;;;253.73;;
69325;SDS011;56471;53.508;49.252;2023-04-07T06:57:29;280.63;;;194.18;;
69325;SDS011;56471;53.508;49.252;2023-04-07T06:59:55;223.82;;;146.65;;
69325;SDS011;56471;53.508;49.252;2023-04-07T07:02:21;188.10;;;124.47;;
69325;SDS011;56471;53.508;49.252;2023-04-07T07:04:46;152.70;;;103.05;;
69325;SDS011;56471;53.508;49.252;2023-04-07T07:07:12;130.75;;;85.90;;
69325;SDS011;56471;53.508;49.252;2023-04-07T07:09:37;113.65;;;72.30;;
69325;SDS011;56471;53.508;49.252;2023-04-07T07:12:03;97.03;;;57.92;;
69325;SDS011;56471;53.508;49.252;2023-04-07T07:14:30;83.65;;;48.22;;
69325;SDS011;56471;53.508;49.252;2023-04-07T07:16:55;64.70;;;38.22;;
69325;SDS011;56471;53.508;49.252;2023-04-07T07:19:21;54.38;;;31.42;;
69325;SDS011;56471;53.508;49.252;2023-04-07T07:21:47;40.60;;;23.73;;
69325;SDS011;56471;53.508;49.252;2023-04-07T07:24:12;32.55;;;19.52;;
69325;SDS011;56471;53.508;49.252;2023-04-07T07:26:38;26.50;;;15.00;;
69325;SDS011;56471;53.508;49.252;2023-04-07T07:29:05;21.02;;;12.60;;
69325;SDS011;56471;53.508;49.252;2023-04-07T07:31:31;17.10;;;10.48;;
69325;SDS011;56471;53.508;49.252;2023-04-07T07:33:57;13.88;;;8.57;;
69325;SDS011;56471;53.508;49.252;2023-04-07T07:36:22;175.68;;;125.75;;
69325;SDS011;56471;53.508;49.252;2023-04-07T07:38:49;498.95;;;382.38;;
69325;SDS011;56471;53.508;49.252;2023-04-07T07:41:15;458.35;;;344.85;;
69325;SDS011;56471;53.508;49.252;2023-04-07T07:43:41;390.00;;;292.30;;
69325;SDS011;56471;53.508;49.252;2023-04-07T07:46:07;310.65;;;219.93;;
69325;SDS011;56471;53.508;49.252;2023-04-07T07:48:41;246.98;;;164.00;;
69325;SDS011;56471;53.508;49.252;2023-04-07T07:51:07;196.27;;;129.70;;
69325;SDS011;56471;53.508;49.252;2023-04-07T07:53:45;161.45;;;104.85;;
69325;SDS011;56471;53.508;49.252;2023-04-07T07:56:11;135.18;;;87.55;;
69325;SDS011;56471;53.508;49.252;2023-04-07T07:58:37;121.03;;;76.15;;
69325;SDS011;56471;53.508;49.252;2023-04-07T08:01:02;89.97;;;53.55;;
69325;SDS011;56471;53.508;49.252;2023-04-07T08:03:28;79.43;;;43.50;;
69325;SDS011;56471;53.508;49.252;2023-04-07T08:05:54;69.38;;;39.97;;
69325;SDS011;56471;53.508;49.252;2023-04-07T08:08:20;58.67;;;33.05;;
69325;SDS011;56471;53.508;49.252;2023-04-07T08:10:45;45.65;;;26.65;;
69325;SDS011;56471;53.508;49.252;2023-04-07T08:13:11;42.55;;;22.83;;
69325;SDS011;56471;53.508;49.252;2023-04-07T08:15:37;32.35;;;18.55;;
69325;SDS011;56471;53.508;49.252;2023-04-07T08:18:03;23.17;;;13.95;;
69325;SDS011;56471;53.508;49.252;2023-04-07T08:20:30;21.50;;;12.23;;
69325;SDS011;56471;53.508;49.252;2023-04-07T08:22:57;18.52;;;9.75;;
69325;SDS011;56471;53.508;49.252;2023-04-07T08:25:22;17.08;;;8.55;;
69325;SDS011;56471;53.508;49.252;2023-04-07T08:27:50;15.93;;;7.75;;
69325;SDS011;56471;53.508;49.252;2023-04-07T08:30:16;10.25;;;6.43;;
69325;SDS011;56471;53.508;49.252;2023-04-07T08:32:46;11.48;;;5.93;;
69325;SDS011;56471;53.508;49.252;2023-04-07T08:35:12;7.43;;;5.25;;
69325;SDS011;56471;53.508;49.252;2023-04-07T08:37:38;10.55;;;5.10;;
69325;SDS011;56471;53.508;49.252;2023-04-07T08:40:05;10.70;;;4.82;;
69325;SDS011;56471;53.508;49.252;2023-04-07T08:42:32;5.90;;;4.10;;
69325;SDS011;56471;53.508;49.252;2023-04-07T08:45:02;9.23;;;3.75;;
69325;SDS011;56471;53.508;49.252;2023-04-07T08:47:30;7.13;;;3.65;;
69325;SDS011;56471;53.508;49.252;2023-04-07T08:50:02;6.72;;;3.03;;
69325;SDS011;56471;53.508;49.252;2023-04-07T08:52:33;28.58;;;13.80;;
69325;SDS011;56471;53.508;49.252;2023-04-07T08:55:05;240.98;;;131.52;;
69325;SDS011;56471;53.508;49.252;2023-04-07T08:57:32;140.95;;;75.68;;
69325;SDS011;56471;53.508;49.252;2023-04-07T08:59:59;313.55;;;176.80;;
69325;SDS011;56471;53.508;49.252;2023-04-07T09:02:32;82.35;;;36.60;;
69325;SDS011;56471;53.508;49.252;2023-04-07T09:05:00;13.35;;;6.05;;
69325;SDS011;56471;53.508;49.252;2023-04-07T09:07:30;6.63;;;3.70;;
69325;SDS011;56471;53.508;49.252;2023-04-07T09:10:00;5.30;;;3.20;;
69325;SDS011;56471;53.508;49.252;2023-04-07T09:12:26;4.90;;;2.75;;
69325;SDS011;56471;53.508;49.252;2023-04-07T09:14:53;6.65;;;2.70;;
69325;SDS011;56471;53.508;49.252;2023-04-07T09:17:19;5.97;;;2.30;;
69325;SDS011;56471;53.508;49.252;2023-04-07T09:19:45;4.53;;;2.20;;
69325;SDS011;56471;53.508;49.252;2023-04-07T09:22:12;2.65;;;2.15;;
69325;SDS011;56471;53.508;49.252;2023-04-07T09:24:39;5.88;;;2.10;;
69325;SDS011;56471;53.508;49.252;2023-04-07T09:27:13;2.85;;;1.92;;
69325;SDS011;56471;53.508;49.252;2023-04-07T09:29:44;5.15;;;2.08;;
69325;SDS011;56471;53.508;49.252;2023-04-07T09:32:11;3.78;;;2.03;;
69325;SDS011;56471;53.508;49.252;2023-04-07T09:34:39;3.58;;;1.90;;
69325;SDS011;56471;53.508;49.252;2023-04-07T09:37:05;3.58;;;2.00;;
69325;SDS011;56471;53.508;49.252;2023-04-07T09:39:48;7.85;;;2.10;;
69325;SDS011;56471;53.508;49.252;2023-04-07T09:42:15;4.40;;;2.00;;
69325;SDS011;56471;53.508;49.252;2023-04-07T09:44:41;5.13;;;1.90;;
69325;SDS011;56471;53.508;49.252;2023-04-07T09:47:08;4.07;;;2.00;;
69325;SDS011;56471;53.508;49.252;2023-04-07T09:49:47;3.53;;;1.80;;
69325;SDS011;56471;53.508;49.252;2023-04-07T09:52:15;2.85;;;1.65;;
69325;SDS011;56471;53.508;49.252;2023-04-07T09:54:47;4.45;;;1.92;;
69325;SDS011;56471;53.508;49.252;2023-04-07T09:57:45;4.70;;;1.80;;
69325;SDS011;56471;53.508;49.252;2023-04-07T10:00:31;4.47;;;1.90;;
69325;SDS011;56471;53.508;49.252;2023-04-07T10:02:57;4.57;;;1.88;;
69325;SDS011;56471;53.508;49.252;2023-04-07T10:05:34;2.85;;;1.67;;
69325;SDS011;56471;53.508;49.252;2023-04-07T10:08:19;2.72;;;1.70;;
69325;SDS011;56471;53.508;49.252;2023-04-07T10:10:54;3.92;;;2.00;;
69325;SDS011;56471;53.508;49.252;2023-04-07T10:13:45;18.10;;;2.35;;
69325;SDS011;56471;53.508;49.252;2023-04-07T10:16:14;8.10;;;2.10;;
69325;SDS011;56471;53.508;49.252;2023-04-07T10:22:27;5.30;;;1.70;;
69325;SDS011;56471;53.508;49.252;2023-04-07T10:25:48;5.68;;;2.10;;
69325;SDS011;56471;53.508;49.252;2023-04-07T10:28:52;397.65;;;289.05;;
69325;SDS011;56471;53.508;49.252;2023-04-07T10:31:25;678.50;;;551.28;;
69325;SDS011;56471;53.508;49.252;2023-04-07T10:33:52;726.75;;;591.20;;
69325;SDS011;56471;53.508;49.252;2023-04-07T10:36:27;631.47;;;511.60;;
69325;SDS011;56471;53.508;49.252;2023-04-07T10:43:57;469.67;;;359.00;;
69325;SDS011;56471;53.508;49.252;2023-04-07T10:46:23;432.65;;;330.75;;
69325;SDS011;56471;53.508;49.252;2023-04-07T10:49:07;422.50;;;319.45;;
69325;SDS011;56471;53.508;49.252;2023-04-07T10:51:34;393.63;;;296.50;;
69325;SDS011;56471;53.508;49.252;2023-04-07T10:54:15;366.80;;;272.70;;
69325;SDS011;56471;53.508;49.252;2023-04-07T10:59:26;273.13;;;189.00;;
69325;SDS011;56471;53.508;49.252;2023-04-07T11:04:39;190.30;;;123.22;;
69325;SDS011;56471;53.508;49.252;2023-04-07T11:07:10;174.27;;;113.85;;
69325;SDS011;56471;53.508;49.252;2023-04-07T11:09:37;167.07;;;108.28;;
69325;SDS011;56471;53.508;49.252;2023-04-07T11:12:02;154.18;;;101.50;;
69325;SDS011;56471;53.508;49.252;2023-04-07T11:14:29;136.48;;;88.43;;
69325;SDS011;56471;53.508;49.252;2023-04-07T11:16:57;124.25;;;81.28;;
69325;SDS011;56471;53.508;49.252;2023-04-07T11:19:23;111.75;;;72.35;;
69325;SDS011;56471;53.508;49.252;2023-04-07T11:24:40;95.90;;;57.58;;
69325;SDS011;56471;53.508;49.252;2023-04-07T11:27:11;87.60;;;52.85;;
69325;SDS011;56471;53.508;49.252;2023-04-07T11:29:37;78.85;;;45.08;;
69325;SDS011;56471;53.508;49.252;2023-04-07T11:32:03;73.00;;;42.72;;
69325;SDS011;56471;53.508;49.252;2023-04-07T11:34:32;66.45;;;38.40;;
69325;SDS011;56471;53.508;49.252;2023-04-07T11:37:20;57.67;;;33.28;;
69325;SDS011;56471;53.508;49.252;2023-04-07T11:39:51;44.53;;;27.25;;
69325;SDS011;56471;53.508;49.252;2023-04-07T11:42:33;46.53;;;25.48;;
69325;SDS011;56471;53.508;49.252;2023-04-07T11:47:35;531.85;;;361.83;;
69325;SDS011;56471;53.508;49.252;2023-04-07T11:50:05;300.00;;;169.30;;
69325;SDS011;56471;53.508;49.252;2023-04-07T11:52:47;311.58;;;156.63;;
69325;SDS011;56471;53.508;49.252;2023-04-07T11:55:19;566.42;;;374.73;;
69325;SDS011;56471;53.508;49.252;2023-04-07T11:57:46;310.23;;;179.23;;
69325;SDS011;56471;53.508;49.252;2023-04-07T12:00:15;160.05;;;89.50;;
69325;SDS011;56471;53.508;49.252;2023-04-07T12:02:56;82.28;;;38.10;;
69325;SDS011;56471;53.508;49.252;2023-04-07T12:09:05;25.45;;;11.93;;
69325;SDS011;56471;53.508;49.252;2023-04-07T12:15:20;138.05;;;78.57;;
69325;SDS011;56471;53.508;49.252;2023-04-07T12:17:48;136.10;;;77.85;;
69325;SDS011;56471;53.508;49.252;2023-04-07T12:20:16;30.33;;;12.27;;
69325;SDS011;56471;53.508;49.252;2023-04-07T12:22:41;9.77;;;4.40;;
69325;SDS011;56471;53.508;49.252;2023-04-07T12:25:07;5.45;;;3.88;;
69325;SDS011;56471;53.508;49.252;2023-04-07T12:27:33;7.53;;;3.13;;
69325;SDS011;56471;53.508;49.252;2023-04-07T12:29:59;7.57;;;3.25;;
69325;SDS011;56471;53.508;49.252;2023-04-07T12:32:24;7.28;;;3.03;;
69325;SDS011;56471;53.508;49.252;2023-04-07T12:34:50;6.78;;;3.17;;
69325;SDS011;56471;53.508;49.252;2023-04-07T12:37:18;8.40;;;3.58;;
69325;SDS011;56471;53.508;49.252;2023-04-07T12:39:45;9.63;;;3.95;;
69325;SDS011;56471;53.508;49.252;2023-04-07T12:42:10;6.03;;;3.92;;
69325;SDS011;56471;53.508;49.252;2023-04-07T12:44:37;10.27;;;4.00;;
69325;SDS011;56471;53.508;49.252;2023-04-07T12:47:02;9.15;;;3.83;;
69325;SDS011;56471;53.508;49.252;2023-04-07T12:49:28;7.88;;;3.58;;
69325;SDS011;56471;53.508;49.252;2023-04-07T12:51:54;4.72;;;3.47;;
69325;SDS011;56471;53.508;49.252;2023-04-07T12:54:21;12.38;;;3.40;;
69325;SDS011;56471;53.508;49.252;2023-04-07T12:56:47;7.10;;;3.40;;
69325;SDS011;56471;53.508;49.252;2023-04-07T12:59:13;7.90;;;2.90;;
69325;SDS011;56471;53.508;49.252;2023-04-07T13:01:40;6.40;;;3.05;;
69325;SDS011;56471;53.508;49.252;2023-04-07T13:04:05;5.03;;;2.70;;
69325;SDS011;56471;53.508;49.252;2023-04-07T13:06:31;7.10;;;3.13;;
69325;SDS011;56471;53.508;49.252;2023-04-07T13:08:57;8.15;;;2.88;;
69325;SDS011;56471;53.508;49.252;2023-04-07T13:11:24;5.80;;;3.05;;
69325;SDS011;56471;53.508;49.252;2023-04-07T13:13:49;8.27;;;3.00;;
69325;SDS011;56471;53.508;49.252;2023-04-07T13:16:15;7.30;;;3.28;;
69325;SDS011;56471;53.508;49.252;2023-04-07T13:18:41;8.70;;;3.50;;
69325;SDS011;56471;53.508;49.252;2023-04-07T13:21:06;10.32;;;3.30;;
69325;SDS011;56471;53.508;49.252;2023-04-07T13:23:32;5.85;;;2.92;;
69325;SDS011;56471;53.508;49.252;2023-04-07T13:25:58;7.30;;;3.13;;
69325;SDS011;56471;53.508;49.252;2023-04-07T13:28:23;10.00;;;3.10;;
69325;SDS011;56471;53.508;49.252;2023-04-07T13:30:49;5.03;;;2.88;;
69325;SDS011;56471;53.508;49.252;2023-04-07T13:33:17;8.70;;;3.53;;
69325;SDS011;56471;53.508;49.252;2023-04-07T13:35:43;7.00;;;3.30;;
69325;SDS011;56471;53.508;49.252;2023-04-07T13:38:09;7.93;;;3.40;;
69325;SDS011;56471;53.508;49.252;2023-04-07T13:40:34;359.70;;;226.27;;
69325;SDS011;56471;53.508;49.252;2023-04-07T13:43:00;13.07;;;6.63;;
69325;SDS011;56471;53.508;49.252;2023-04-07T13:45:26;7.82;;;3.70;;
69325;SDS011;56471;53.508;49.252;2023-04-07T13:47:51;7.95;;;3.30;;
69325;SDS011;56471;53.508;49.252;2023-04-07T13:50:17;9.90;;;2.85;;
69325;SDS011;56471;53.508;49.252;2023-04-07T13:52:43;8.13;;;3.13;;
69325;SDS011;56471;53.508;49.252;2023-04-07T13:55:08;7.80;;;3.33;;
69325;SDS011;56471;53.508;49.252;2023-04-07T13:57:34;4.65;;;3.20;;
69325;SDS011;56471;53.508;49.252;2023-04-07T14:00:00;11.05;;;3.05;;
69325;SDS011;56471;53.508;49.252;2023-04-07T14:02:26;6.90;;;3.55;;
69325;SDS011;56471;53.508;49.252;2023-04-07T14:04:56;7.78;;;3.40;;
69325;SDS011;56471;53.508;49.252;2023-04-07T14:07:21;5.72;;;2.95;;
69325;SDS011;56471;53.508;49.252;2023-04-07T14:09:47;14.75;;;3.92;;
69325;SDS011;56471;53.508;49.252;2023-04-07T14:12:13;21.88;;;3.70;;
69325;SDS011;56471;53.508;49.252;2023-04-07T14:14:39;37.20;;;4.90;;
69325;SDS011;56471;53.508;49.252;2023-04-07T14:17:04;32.20;;;5.13;;
69325;SDS011;56471;53.508;49.252;2023-04-07T14:19:30;20.15;;;4.20;;
69325;SDS011;56471;53.508;49.252;2023-04-07T14:21:59;24.40;;;4.75;;
69325;SDS011;56471;53.508;49.252;2023-04-07T14:24:27;13.93;;;4.10;;
69325;SDS011;56471;53.508;49.252;2023-04-07T14:26:55;20.63;;;4.35;;
69325;SDS011;56471;53.508;49.252;2023-04-07T14:29:21;16.95;;;4.28;;
69325;SDS011;56471;53.508;49.252;2023-04-07T14:31:47;16.52;;;4.20;;
69325;SDS011;56471;53.508;49.252;2023-04-07T14:34:13;12.50;;;4.07;;
69325;SDS011;56471;53.508;49.252;2023-04-07T14:36:39;14.63;;;4.45;;
69325;SDS011;56471;53.508;49.252;2023-04-07T14:39:17;13.02;;;4.20;;
69325;SDS011;56471;53.508;49.252;2023-04-07T14:41:43;8.13;;;4.00;;
69325;SDS011;56471;53.508;49.252;2023-04-07T14:44:11;12.05;;;4.10;;
69325;SDS011;56471;53.508;49.252;2023-04-07T14:46:40;10.40;;;3.90;;
69325;SDS011;56471;53.508;49.252;2023-04-07T14:49:06;10.73;;;4.10;;
69325;SDS011;56471;53.508;49.252;2023-04-07T14:51:35;8.43;;;3.95;;
69325;SDS011;56471;53.508;49.252;2023-04-07T14:54:01;6.65;;;4.00;;
69325;SDS011;56471;53.508;49.252;2023-04-07T14:56:29;12.10;;;4.00;;
69325;SDS011;56471;53.508;49.252;2023-04-07T14:58:55;7.63;;;3.80;;
69325;SDS011;56471;53.508;49.252;2023-04-07T15:01:23;9.23;;;3.50;;
69325;SDS011;56471;53.508;49.252;2023-04-07T15:03:49;7.38;;;3.53;;